createdAt,value
2023-11-14T00:03:11.103Z,12.68
2023-11-14T00:08:16.397Z,3.72
2023-11-14T00:13:21.174Z,12.23
2023-11-14T00:18:25.932Z,3.50
2023-11-14T00:23:30.635Z,5.35
2023-11-14T00:28:35.401Z,15.05
2023-11-14T00:33:39.955Z,9.27
2023-11-14T00:38:44.656Z,9.38
2023-11-14T00:43:49.456Z,9.15
2023-11-14T00:48:54.360Z,9.32
2023-11-14T00:53:59.112Z,11.77
2023-11-14T00:59:06.149Z,8.10
2023-11-14T01:04:12.683Z,8.70
2023-11-14T01:09:17.582Z,7.47
2023-11-14T01:14:23.068Z,9.43
2023-11-14T01:19:28.341Z,7.47
2023-11-14T01:24:33.254Z,11.90
2023-11-14T01:29:38.302Z,4.93
2023-11-14T01:34:43.531Z,5.80
2023-11-14T01:39:48.315Z,4.80
2023-11-14T01:44:53.113Z,9.88
2023-11-14T01:49:58.084Z,6.18
2023-11-14T01:55:02.989Z,11.88
2023-11-14T02:00:08.944Z,11.82
2023-11-14T02:05:22.224Z,14.05
2023-11-14T02:10:27.072Z,7.47
2023-11-14T02:15:32.010Z,7.25
2023-11-14T02:20:36.896Z,6.00
2023-11-14T02:25:41.933Z,5.25
2023-11-14T02:30:47.346Z,10.77
2023-11-14T02:35:52.381Z,12.02
2023-11-14T02:40:57.251Z,8.93
2023-11-14T02:46:02.579Z,9.77
2023-11-14T02:51:07.614Z,4.30
2023-11-14T02:56:13.398Z,9.85
2023-11-14T03:01:18.163Z,14.90
2023-11-14T03:06:22.862Z,10.27
2023-11-14T03:11:27.946Z,8.30
2023-11-14T03:16:32.941Z,12.13
2023-11-14T03:21:44.727Z,24.95
2023-11-14T03:26:49.731Z,10.57
2023-11-14T03:31:54.587Z,13.20
2023-11-14T03:37:01.101Z,11.40
2023-11-14T03:42:05.851Z,14.60
2023-11-14T03:47:11.041Z,12.82
2023-11-14T03:52:16.062Z,13.48
2023-11-14T03:57:21.931Z,17.63
2023-11-14T04:02:28.835Z,9.20
2023-11-14T04:07:34.539Z,11.30
2023-11-14T04:12:39.948Z,13.83
2023-11-14T04:17:45.177Z,17.97
2023-11-14T04:22:50.075Z,12.82
2023-11-14T04:27:55.019Z,17.33
2023-11-14T04:32:59.870Z,10.35
2023-11-14T04:38:04.600Z,17.00
2023-11-14T04:43:09.260Z,15.98
2023-11-14T04:48:17.056Z,25.23
2023-11-14T04:53:21.819Z,10.52
2023-11-14T04:58:26.591Z,14.93
2023-11-14T05:03:32.610Z,15.77
2023-11-14T05:08:37.441Z,18.63
2023-11-14T05:13:42.981Z,9.88
2023-11-14T05:18:47.893Z,21.37
2023-11-14T05:23:52.636Z,15.38
2023-11-14T05:28:57.280Z,18.15
2023-11-14T05:34:02.608Z,17.15
2023-11-14T05:39:07.540Z,17.57
2023-11-14T05:44:13.244Z,16.45
2023-11-14T05:49:19.191Z,10.97
2023-11-14T05:54:24.145Z,11.80
2023-11-14T05:59:30.134Z,15.50
2023-11-14T06:04:34.909Z,14.13
2023-11-14T06:09:39.885Z,14.32
2023-11-14T06:14:44.566Z,15.27
2023-11-14T06:19:49.343Z,18.40
2023-11-14T06:24:54.033Z,16.50
2023-11-14T06:29:59.113Z,13.32
2023-11-14T06:35:04.708Z,15.18
2023-11-14T06:40:10.788Z,13.50
2023-11-14T06:45:15.515Z,11.10
2023-11-14T06:50:29.949Z,13.85
2023-11-14T06:55:43.492Z,16.35
2023-11-14T07:00:48.126Z,8.03
2023-11-14T07:05:52.765Z,14.52
2023-11-14T07:10:58.223Z,14.00
2023-11-14T07:16:03.347Z,16.03
2023-11-14T07:21:08.422Z,10.93
2023-11-14T07:26:14.932Z,13.82
2023-11-14T07:31:20.702Z,12.85
2023-11-14T07:36:27.264Z,23.58
2023-11-14T07:41:32.151Z,20.83
2023-11-14T07:46:40.721Z,26.15
2023-11-14T07:51:48.180Z,15.30
2023-11-14T07:56:52.988Z,38.25
2023-11-14T08:01:57.876Z,16.50
2023-11-14T08:07:02.839Z,13.75
2023-11-14T08:12:08.423Z,13.82
2023-11-14T08:17:13.462Z,20.17
2023-11-14T08:22:18.643Z,13.55
2023-11-14T08:27:23.537Z,19.25
2023-11-14T08:32:28.478Z,14.60
2023-11-14T08:37:34.155Z,12.80
2023-11-14T08:42:39.637Z,13.33
2023-11-14T08:47:44.448Z,19.10
2023-11-14T08:52:49.350Z,12.20
2023-11-14T08:57:54.366Z,6.85
2023-11-14T09:03:00.670Z,12.05
2023-11-14T09:08:05.986Z,13.18
2023-11-14T09:13:14.298Z,10.35
2023-11-14T09:18:19.321Z,11.20
2023-11-14T09:23:24.688Z,11.07
2023-11-14T09:28:29.689Z,12.10
2023-11-14T09:33:37.756Z,8.50
2023-11-14T09:38:42.488Z,16.10
2023-11-14T09:43:48.520Z,11.50
2023-11-14T09:48:53.049Z,20.17
2023-11-14T09:53:58.422Z,15.10
2023-11-14T09:59:04.276Z,10.43
2023-11-14T10:04:11.391Z,9.70
2023-11-14T10:09:17.805Z,13.05
2023-11-14T10:14:22.605Z,15.93
2023-11-14T10:19:27.085Z,11.00
2023-11-14T10:24:31.932Z,13.77
2023-11-14T10:29:36.733Z,21.02
2023-11-14T10:34:41.366Z,13.02
2023-11-14T10:39:56.055Z,16.73
2023-11-14T10:45:09.430Z,14.32
2023-11-14T10:50:33.003Z,13.27
2023-11-14T10:55:39.083Z,15.23
2023-11-14T11:00:43.880Z,13.00
2023-11-14T11:05:49.929Z,19.75
2023-11-14T11:10:54.865Z,21.70
2023-11-14T11:15:59.555Z,19.73
2023-11-14T11:21:15.208Z,19.23
2023-11-14T11:26:21.514Z,19.07
2023-11-14T11:36:33.083Z,18.42
2023-11-14T11:41:56.666Z,17.67
2023-11-14T11:47:01.773Z,18.90
2023-11-14T11:52:15.275Z,16.73
2023-11-14T11:57:24.304Z,27.15
2023-11-14T12:02:31.957Z,18.83
2023-11-14T12:07:37.474Z,14.73
2023-11-14T12:12:42.772Z,16.08
2023-11-14T12:17:58.417Z,25.88
2023-11-14T12:23:03.914Z,22.50
2023-11-14T12:28:09.629Z,21.03
2023-11-14T12:33:18.729Z,26.05
2023-11-14T12:38:33.819Z,23.00
2023-11-14T12:43:38.912Z,23.80
2023-11-14T12:49:09.490Z,22.73
2023-11-14T12:54:22.865Z,19.52
2023-11-14T12:59:27.704Z,28.23
2023-11-14T13:04:32.765Z,19.65
2023-11-14T13:09:38.024Z,20.60
2023-11-14T13:14:45.325Z,22.05
2023-11-14T13:19:50.787Z,18.90
2023-11-14T13:24:55.499Z,20.23
2023-11-14T13:30:00.307Z,23.70
2023-11-14T13:35:07.529Z,27.05
2023-11-14T13:40:15.330Z,21.08
2023-11-14T13:45:20.849Z,26.23
2023-11-14T13:50:26.971Z,27.00
2023-11-14T14:00:36.946Z,25.00
2023-11-14T14:05:42.065Z,20.77
2023-11-14T14:10:46.690Z,26.75
2023-11-14T14:15:51.524Z,37.47
2023-11-14T14:21:03.332Z,31.00
2023-11-14T14:26:08.422Z,17.20
2023-11-14T14:31:20.758Z,23.67
2023-11-14T14:36:25.824Z,17.95
2023-11-14T14:41:30.884Z,23.10
2023-11-14T14:46:36.638Z,20.95
2023-11-14T14:51:44.253Z,18.35
2023-11-14T14:56:49.874Z,22.80
2023-11-14T15:01:58.819Z,17.10
2023-11-14T15:07:04.059Z,23.50
2023-11-14T15:12:09.096Z,26.13
2023-11-14T15:17:13.889Z,21.73
2023-11-14T15:22:18.789Z,28.17
2023-11-14T15:27:23.650Z,26.92
2023-11-14T15:32:28.758Z,30.67
2023-11-14T15:37:36.939Z,25.80
2023-11-14T15:42:42.329Z,28.33
2023-11-14T15:47:50.255Z,16.60
2023-11-14T15:52:55.152Z,17.00
2023-11-14T15:58:00.327Z,23.02
2023-11-14T16:03:07.116Z,14.40
2023-11-14T16:08:11.936Z,18.02
2023-11-14T16:13:18.642Z,15.65
2023-11-14T16:18:25.346Z,24.85
2023-11-14T16:23:30.463Z,17.13
2023-11-14T16:28:35.405Z,30.55
2023-11-14T16:33:40.178Z,24.85
2023-11-14T16:38:44.977Z,19.48
2023-11-14T16:43:51.750Z,22.08
2023-11-14T16:48:58.934Z,18.88
2023-11-14T16:54:04.367Z,23.40
2023-11-14T16:59:10.419Z,32.33
2023-11-14T17:04:15.478Z,35.25
2023-11-14T17:09:20.728Z,35.08
2023-11-14T17:14:26.447Z,22.42
2023-11-14T17:19:32.226Z,18.17
2023-11-14T17:24:39.873Z,26.63
2023-11-14T17:29:44.818Z,24.25
2023-11-14T17:34:52.661Z,28.40
2023-11-14T17:39:58.130Z,22.88
2023-11-14T17:45:03.012Z,24.15
2023-11-14T17:50:10.478Z,28.55
2023-11-14T17:55:15.341Z,20.17
2023-11-14T18:00:20.624Z,24.02
2023-11-14T18:05:26.181Z,24.80
2023-11-14T18:10:31.207Z,24.33
2023-11-14T18:15:36.919Z,21.90
2023-11-14T18:20:41.776Z,23.43
2023-11-14T18:25:46.534Z,28.23
2023-11-14T18:30:51.295Z,27.00
2023-11-14T18:35:58.370Z,24.70
2023-11-14T18:41:05.323Z,29.10
2023-11-14T18:46:10.992Z,22.58
2023-11-14T18:51:16.145Z,26.67
2023-11-14T18:56:24.364Z,24.83
2023-11-14T19:01:29.308Z,24.45
2023-11-14T19:06:35.134Z,37.28
2023-11-14T19:11:39.860Z,28.05
2023-11-14T19:16:47.219Z,23.63
2023-11-14T19:21:52.222Z,29.55
2023-11-14T19:26:57.130Z,28.33
2023-11-14T19:32:02.169Z,24.17
2023-11-14T19:37:06.840Z,28.15
2023-11-14T19:42:12.055Z,25.40
2023-11-14T19:47:17.281Z,26.25
2023-11-14T19:52:26.168Z,25.10
2023-11-14T19:57:31.034Z,23.15
2023-11-14T20:02:36.013Z,25.48
2023-11-14T20:07:40.916Z,21.65
2023-11-14T20:12:45.878Z,21.73
2023-11-14T20:17:51.314Z,23.23
2023-11-14T20:22:56.117Z,20.60
2023-11-14T20:28:01.420Z,26.45
2023-11-14T20:33:06.333Z,17.27
2023-11-14T20:38:11.238Z,19.15
2023-11-14T20:43:16.086Z,17.85
2023-11-14T20:48:24.782Z,20.80
2023-11-14T20:53:29.887Z,24.02
2023-11-14T20:58:34.889Z,22.08
2023-11-14T21:03:39.536Z,19.20
2023-11-14T21:08:44.729Z,21.75
2023-11-14T21:13:49.905Z,26.30
2023-11-14T21:18:54.834Z,22.50
2023-11-14T21:24:00.236Z,18.45
2023-11-14T21:29:05.391Z,41.97
2023-11-14T21:34:13.466Z,24.98
2023-11-14T21:39:18.542Z,28.17
2023-11-14T21:44:23.222Z,30.20
2023-11-14T21:49:28.132Z,25.02
2023-11-14T21:54:33.036Z,29.63
2023-11-14T21:59:37.986Z,29.00
2023-11-14T22:04:42.600Z,34.63
2023-11-14T22:09:47.237Z,29.95
2023-11-14T22:14:51.937Z,30.83
2023-11-14T22:19:56.668Z,32.97
2023-11-14T22:25:01.462Z,35.10
2023-11-14T22:30:07.195Z,24.85
2023-11-14T22:35:12.761Z,35.15
2023-11-14T22:40:17.467Z,31.80
2023-11-14T22:45:22.268Z,24.50
2023-11-14T22:50:26.769Z,27.30
2023-11-14T22:55:31.342Z,28.00
2023-11-14T23:00:38.480Z,25.48
2023-11-14T23:05:49.962Z,30.52
2023-11-14T23:10:54.833Z,27.85
2023-11-14T23:15:59.354Z,21.75
2023-11-14T23:21:04.049Z,22.95
2023-11-14T23:26:08.811Z,24.35
2023-11-14T23:31:13.670Z,28.08
2023-11-14T23:36:19.196Z,23.33
2023-11-14T23:41:24.806Z,20.57
2023-11-14T23:46:29.996Z,28.80
2023-11-14T23:51:35.572Z,20.83
2023-11-14T23:56:40.176Z,23.67
